createdAt,value
2023-04-25T00:02:13.306Z,99797.59
2023-04-25T00:04:40.304Z,99801.09
2023-04-25T00:07:07.203Z,99802.28
2023-04-25T00:09:34.116Z,99802.28
2023-04-25T00:12:02.260Z,99794.28
2023-04-25T00:14:38.363Z,99802.28
2023-04-25T00:17:12.186Z,99789.66
2023-04-25T00:19:38.781Z,99789.38
2023-04-25T00:22:29.855Z,99791.38
2023-04-25T00:25:04.272Z,99794.75
2023-04-25T00:27:30.827Z,99786.88
2023-04-25T00:29:57.363Z,99794.56
2023-04-25T00:32:23.984Z,99789.38
2023-04-25T00:34:50.663Z,99786.94
2023-04-25T00:37:17.164Z,99791.97
2023-04-25T00:39:43.568Z,99783.38
2023-04-25T00:42:10.840Z,99786.75
2023-04-25T00:44:38.174Z,99786.88
2023-04-25T00:47:05.795Z,99780.72
2023-04-25T00:49:32.282Z,99778.34
2023-04-25T00:51:59.144Z,99781.13
2023-04-25T00:54:26.129Z,99781.97
2023-04-25T00:56:53.434Z,99777.50
2023-04-25T00:59:21.390Z,99770.56
2023-04-25T01:01:48.266Z,99770.44
2023-04-25T01:04:14.821Z,99774.72
2023-04-25T01:06:41.818Z,99774.97
2023-04-25T01:09:08.569Z,99762.63
2023-04-25T01:11:35.572Z,99767.03
2023-04-25T01:14:03.152Z,99767.22
2023-04-25T01:16:29.954Z,99768.00
2023-04-25T01:18:56.888Z,99764.38
2023-04-25T01:21:23.354Z,99765.22
2023-04-25T01:23:50.317Z,99758.34
2023-04-25T01:26:17.522Z,99758.44
2023-04-25T01:28:44.393Z,99760.16
2023-04-25T01:31:13.741Z,99755.91
2023-04-25T01:33:40.238Z,99761.13
2023-04-25T01:36:07.537Z,99760.09
2023-04-25T01:38:36.302Z,99754.94
2023-04-25T01:41:02.908Z,99761.38
2023-04-25T01:43:50.126Z,99760.28
2023-04-25T01:46:37.171Z,99761.19
2023-04-25T01:49:25.215Z,99765.44
2023-04-25T01:52:11.952Z,99764.09
2023-04-25T01:55:02.232Z,99759.69
2023-04-25T01:57:50.544Z,99760.66
2023-04-25T02:00:19.194Z,99766.59
2023-04-25T02:02:45.825Z,99760.53
2023-04-25T02:05:36.740Z,99766.72
2023-04-25T02:08:09.613Z,99763.09
2023-04-25T02:10:37.492Z,99770.34
2023-04-25T02:13:29.924Z,99765.25
2023-04-25T02:16:19.048Z,99770.56
2023-04-25T02:18:45.904Z,99770.56
2023-04-25T02:21:12.737Z,99766.03
2023-04-25T02:23:39.461Z,99766.94
2023-04-25T02:26:06.401Z,99773.56
2023-04-25T02:28:33.080Z,99771.13
2023-04-25T02:30:59.621Z,99773.84
2023-04-25T02:33:26.482Z,99762.47
2023-04-25T02:35:52.933Z,99772.59
2023-04-25T02:38:22.328Z,99770.22
2023-04-25T02:40:48.870Z,99765.81
2023-04-25T02:43:15.357Z,99769.56
2023-04-25T02:45:41.822Z,99769.38
2023-04-25T02:48:08.655Z,99759.41
2023-04-25T02:50:35.247Z,99762.66
2023-04-25T02:53:01.884Z,99761.47
2023-04-25T02:55:35.150Z,99768.13
2023-04-25T02:58:03.562Z,99767.75
2023-04-25T03:00:39.909Z,99771.19
2023-04-25T03:03:06.555Z,99776.13
2023-04-25T03:05:33.264Z,99775.13
2023-04-25T03:07:59.831Z,99778.16
2023-04-25T03:10:27.575Z,99772.16
2023-04-25T03:12:54.688Z,99770.06
2023-04-25T03:15:21.389Z,99765.56
2023-04-25T03:17:48.062Z,99762.06
2023-04-25T03:20:14.529Z,99763.50
2023-04-25T03:22:41.391Z,99760.94
2023-04-25T03:25:08.690Z,99761.84
2023-04-25T03:27:35.252Z,99766.03
2023-04-25T03:30:03.666Z,99755.72
2023-04-25T03:32:30.475Z,99761.78
2023-04-25T03:34:57.120Z,99763.38
2023-04-25T03:37:25.904Z,99760.91
2023-04-25T03:39:52.578Z,99762.47
2023-04-25T03:42:19.187Z,99770.78
2023-04-25T03:44:46.822Z,99774.06
2023-04-25T03:47:14.269Z,99771.31
2023-04-25T03:49:41.038Z,99774.03
2023-04-25T03:52:07.909Z,99764.25
2023-04-25T03:54:38.415Z,99763.16
2023-04-25T03:57:08.466Z,99763.69
2023-04-25T03:59:38.211Z,99763.50
2023-04-25T04:02:05.790Z,99766.94
2023-04-25T04:04:35.001Z,99771.25
2023-04-25T04:07:01.695Z,99773.00
2023-04-25T04:09:31.698Z,99773.78
2023-04-25T04:12:02.313Z,99776.56
2023-04-25T04:14:31.004Z,99784.34
2023-04-25T04:16:57.724Z,99794.88
2023-04-25T04:19:24.310Z,99779.09
2023-04-25T04:21:59.827Z,99782.00
2023-04-25T04:24:26.693Z,99783.13
2023-04-25T04:26:58.232Z,99786.50
2023-04-25T04:32:24.867Z,99795.00
2023-04-25T04:34:53.051Z,99794.25
2023-04-25T04:37:22.823Z,99792.50
2023-04-25T04:39:49.507Z,99795.78
2023-04-25T04:42:39.200Z,99791.66
2023-04-25T04:45:15.140Z,99804.50
2023-04-25T04:48:08.109Z,99797.38
2023-04-25T04:50:54.356Z,99801.47
2023-04-25T04:53:37.936Z,99808.78
2023-04-25T04:56:21.828Z,99807.88
2023-04-25T04:59:05.367Z,99812.97
2023-04-25T05:01:41.931Z,99813.03
2023-04-25T05:04:34.681Z,99816.22
2023-04-25T05:07:06.754Z,99825.66
2023-04-25T05:09:48.552Z,99830.06
2023-04-25T05:12:36.982Z,99825.91
2023-04-25T05:15:26.919Z,99830.38
2023-04-25T05:18:31.764Z,99837.53
2023-04-25T05:21:21.509Z,99838.19
2023-04-25T05:24:02.765Z,99828.38
2023-04-25T05:26:47.869Z,99826.69
2023-04-25T05:29:43.818Z,99829.84
2023-04-25T05:32:23.729Z,99830.31
2023-04-25T05:34:51.123Z,99827.78
2023-04-25T05:37:25.376Z,99838.28
2023-04-25T05:39:56.023Z,99835.69
2023-04-25T05:42:41.246Z,99834.78
2023-04-25T05:45:23.142Z,99837.19
2023-04-25T05:48:15.810Z,99843.78
2023-04-25T05:50:53.226Z,99838.13
2023-04-25T05:53:38.781Z,99835.47
2023-04-25T05:56:06.421Z,99839.38
2023-04-25T05:58:33.002Z,99842.34
2023-04-25T06:01:00.631Z,99837.34
2023-04-25T06:03:27.487Z,99841.44
2023-04-25T06:05:54.656Z,99845.69
2023-04-25T06:08:21.175Z,99850.66
2023-04-25T06:10:47.791Z,99842.59
2023-04-25T06:13:14.354Z,99847.91
2023-04-25T06:15:41.341Z,99848.06
2023-04-25T06:18:08.006Z,99850.72
2023-04-25T06:20:34.602Z,99851.97
2023-04-25T06:23:01.907Z,99844.69
2023-04-25T06:25:38.451Z,99839.69
2023-04-25T06:28:05.205Z,99843.03
2023-04-25T06:30:31.913Z,99850.34
2023-04-25T06:33:04.521Z,99843.25
2023-04-25T06:35:32.064Z,99840.84
2023-04-25T06:37:59.216Z,99840.03
2023-04-25T06:40:26.310Z,99844.03
2023-04-25T06:42:53.130Z,99845.69
2023-04-25T06:45:43.553Z,99840.66
2023-04-25T06:48:11.107Z,99844.28
2023-04-25T06:50:38.179Z,99844.41
2023-04-25T06:53:04.710Z,99843.88
2023-04-25T06:55:31.597Z,99844.00
2023-04-25T06:58:18.199Z,99851.56
2023-04-25T07:01:07.969Z,99853.84
2023-04-25T07:03:35.103Z,99850.84
2023-04-25T07:06:07.498Z,99855.59
2023-04-25T07:08:34.187Z,99852.78
2023-04-25T07:11:01.004Z,99847.84
2023-04-25T07:13:28.445Z,99854.47
2023-04-25T07:15:57.135Z,99855.72
2023-04-25T07:18:24.122Z,99854.41
2023-04-25T07:20:51.259Z,99856.94
2023-04-25T07:23:18.659Z,99865.44
2023-04-25T07:25:46.080Z,99860.97
2023-04-25T07:28:14.770Z,99861.78
2023-04-25T07:30:41.477Z,99856.84
2023-04-25T07:33:08.046Z,99860.63
2023-04-25T07:35:34.614Z,99867.56
2023-04-25T07:38:01.207Z,99868.47
2023-04-25T07:40:27.911Z,99872.56
2023-04-25T07:42:59.860Z,99865.34
2023-04-25T07:45:38.732Z,99877.84
2023-04-25T07:48:05.823Z,99877.59
2023-04-25T07:50:35.898Z,99882.63
2023-04-25T07:53:02.491Z,99879.63
2023-04-25T07:55:34.462Z,99886.28
2023-04-25T07:58:09.784Z,99893.31
2023-04-25T08:00:39.260Z,99889.44
2023-04-25T08:03:24.430Z,99896.19
2023-04-25T08:05:51.775Z,99900.00
2023-04-25T08:08:19.554Z,99893.81
2023-04-25T08:10:46.324Z,99897.00
2023-04-25T08:13:13.554Z,99898.97
2023-04-25T08:15:41.209Z,99910.81
2023-04-25T08:18:07.779Z,99903.13
2023-04-25T08:20:34.612Z,99913.25
2023-04-25T08:23:03.620Z,99926.47
2023-04-25T08:25:52.725Z,99925.53
2023-04-25T08:28:22.838Z,99933.75
2023-04-25T08:30:49.367Z,99931.22
2023-04-25T08:33:17.600Z,99929.97
2023-04-25T08:36:00.043Z,99940.31
2023-04-25T08:38:27.781Z,99938.31
2023-04-25T08:40:56.330Z,99940.19
2023-04-25T08:43:24.498Z,99940.38
2023-04-25T08:45:55.173Z,99939.94
2023-04-25T08:48:35.891Z,99951.72
2023-04-25T08:53:43.679Z,99964.44
2023-04-25T08:56:14.180Z,99960.72
2023-04-25T08:58:41.242Z,99969.72
2023-04-25T09:01:07.828Z,99974.81
2023-04-25T09:03:42.896Z,99971.28
2023-04-25T09:06:11.827Z,99976.00
2023-04-25T09:08:39.443Z,99987.44
2023-04-25T09:11:05.880Z,99984.38
2023-04-25T09:13:32.412Z,99991.91
2023-04-25T09:16:23.071Z,99989.13
2023-04-25T09:19:08.401Z,99995.03
2023-04-25T09:21:35.816Z,99997.13
2023-04-25T09:24:03.086Z,100003.78
2023-04-25T09:26:29.622Z,99995.47
2023-04-25T09:29:08.099Z,99999.06
2023-04-25T09:31:36.625Z,100002.63
2023-04-25T09:34:05.101Z,99999.84
2023-04-25T09:36:41.553Z,100009.06
2023-04-25T09:39:45.878Z,100011.53
2023-04-25T09:42:16.998Z,100007.31
2023-04-25T09:44:47.724Z,100014.38
2023-04-25T09:47:17.366Z,100025.81
2023-04-25T09:49:45.318Z,100024.22
2023-04-25T09:52:18.831Z,100035.88
2023-04-25T09:54:55.220Z,100027.75
2023-04-25T09:57:29.399Z,100035.06
2023-04-25T09:59:57.478Z,100029.91
2023-04-25T10:02:28.301Z,100042.00
2023-04-25T10:05:04.409Z,100024.59
2023-04-25T10:07:38.997Z,100036.03
2023-04-25T10:10:09.695Z,100024.78
2023-04-25T10:12:36.934Z,100028.06
2023-04-25T10:15:05.090Z,100034.78
2023-04-25T10:17:33.959Z,100036.00
2023-04-25T10:20:04.253Z,100041.56
2023-04-25T10:22:35.180Z,100040.44
2023-04-25T10:25:04.788Z,100037.91
2023-04-25T10:27:32.028Z,100039.00
2023-04-25T10:30:25.077Z,100040.34
2023-04-25T10:32:51.854Z,100039.81
2023-04-25T10:35:20.682Z,100041.75
2023-04-25T10:38:10.595Z,100038.28
2023-04-25T10:40:37.626Z,100043.06
2023-04-25T10:43:32.255Z,100035.06
2023-04-25T10:46:01.480Z,100040.19
2023-04-25T10:48:30.264Z,100043.84
2023-04-25T10:51:10.572Z,100048.16
2023-04-25T10:53:38.077Z,100052.44
2023-04-25T10:56:22.161Z,100042.88
2023-04-25T10:58:51.309Z,100044.75
2023-04-25T11:01:26.797Z,100046.25
2023-04-25T11:04:00.401Z,100058.13
2023-04-25T11:06:42.134Z,100057.44
2023-04-25T11:09:16.552Z,100055.97
2023-04-25T11:11:43.665Z,100063.44
2023-04-25T11:14:14.460Z,100057.06
2023-04-25T11:16:42.925Z,100067.19
2023-04-25T11:19:11.037Z,100069.34
2023-04-25T11:21:38.123Z,100070.38
2023-04-25T11:24:05.163Z,100071.56
2023-04-25T11:26:31.886Z,100072.72
2023-04-25T11:29:00.671Z,100075.53
2023-04-25T11:31:27.228Z,100076.06
2023-04-25T11:34:01.376Z,100079.13
2023-04-25T11:36:28.344Z,100082.09
2023-04-25T11:38:55.119Z,100088.31
2023-04-25T11:41:23.141Z,100085.19
2023-04-25T11:43:50.980Z,100080.38
2023-04-25T11:46:17.552Z,100085.19
2023-04-25T11:48:44.605Z,100082.03
2023-04-25T11:51:11.279Z,100087.09
2023-04-25T11:53:42.268Z,100084.94
2023-04-25T11:56:12.794Z,100083.88
2023-04-25T11:58:56.434Z,100092.84
2023-04-25T12:01:30.972Z,100087.22
2023-04-25T12:04:14.917Z,100087.91
2023-04-25T12:06:43.427Z,100098.28
2023-04-25T12:09:11.865Z,100103.25
2023-04-25T12:11:54.945Z,100105.34
2023-04-25T12:14:35.181Z,100101.75
2023-04-25T12:17:04.103Z,100101.66
2023-04-25T12:19:41.446Z,100105.34
2023-04-25T12:22:35.001Z,100105.50
2023-04-25T12:25:01.617Z,100101.66
2023-04-25T12:27:28.310Z,100106.66
2023-04-25T12:29:56.814Z,100103.16
2023-04-25T12:32:23.989Z,100110.59
2023-04-25T12:34:50.880Z,100111.50
2023-04-25T12:37:17.465Z,100116.34
2023-04-25T12:39:44.265Z,100101.03
2023-04-25T12:42:12.718Z,100108.25
2023-04-25T12:44:40.310Z,100112.25
2023-04-25T12:47:06.934Z,100117.03
2023-04-25T12:49:33.823Z,100114.13
2023-04-25T12:52:00.389Z,100114.75
2023-04-25T12:54:27.073Z,100116.69
2023-04-25T12:56:53.792Z,100120.75
2023-04-25T12:59:21.428Z,100116.78
2023-04-25T13:01:48.452Z,100116.75
2023-04-25T13:04:15.005Z,100118.59
2023-04-25T13:06:41.638Z,100123.97
2023-04-25T13:09:08.241Z,100121.00
2023-04-25T13:11:34.894Z,100121.06
2023-04-25T13:14:02.059Z,100119.41
2023-04-25T13:16:28.630Z,100124.97
2023-04-25T13:18:57.002Z,100122.09
2023-04-25T13:21:23.538Z,100119.75
2023-04-25T13:23:50.130Z,100117.38
2023-04-25T13:26:17.390Z,100122.34
2023-04-25T13:28:44.921Z,100122.50
2023-04-25T13:31:12.192Z,100121.25
2023-04-25T13:33:38.930Z,100116.31
2023-04-25T13:36:06.678Z,100115.00
2023-04-25T13:38:33.293Z,100108.53
2023-04-25T13:40:59.856Z,100115.72
2023-04-25T13:43:26.447Z,100123.78
2023-04-25T13:45:52.960Z,100133.72
2023-04-25T13:48:20.829Z,100126.84
2023-04-25T13:50:47.332Z,100132.69
2023-04-25T13:53:13.882Z,100140.09
2023-04-25T13:55:40.545Z,100136.28
2023-04-25T13:58:08.926Z,100141.06
2023-04-25T14:00:40.000Z,100143.41
2023-04-25T14:03:08.742Z,100140.69
2023-04-25T14:05:40.387Z,100133.59
2023-04-25T14:08:10.934Z,100134.63
2023-04-25T14:10:37.953Z,100142.38
2023-04-25T14:13:06.177Z,100141.38
2023-04-25T14:15:33.469Z,100142.81
2023-04-25T14:18:01.387Z,100150.00
2023-04-25T14:20:28.586Z,100152.59
2023-04-25T14:22:56.955Z,100154.81
2023-04-25T14:25:24.356Z,100154.41
2023-04-25T14:27:51.071Z,100157.03
2023-04-25T14:30:21.910Z,100150.38
2023-04-25T14:32:51.636Z,100166.13
2023-04-25T14:35:18.660Z,100167.41
2023-04-25T14:37:45.446Z,100161.03
2023-04-25T14:40:14.122Z,100150.41
2023-04-25T14:42:41.261Z,100152.41
2023-04-25T14:45:09.690Z,100152.16
2023-04-25T14:47:37.775Z,100157.47
2023-04-25T14:50:05.499Z,100157.31
2023-04-25T14:52:32.158Z,100157.47
2023-04-25T14:55:00.873Z,100158.09
2023-04-25T14:57:27.493Z,100164.72
2023-04-25T14:59:53.969Z,100168.50
2023-04-25T15:02:20.531Z,100167.00
2023-04-25T15:04:47.371Z,100170.56
2023-04-25T15:07:14.776Z,100174.28
2023-04-25T15:09:42.262Z,100173.50
2023-04-25T15:12:08.934Z,100175.63
2023-04-25T15:14:35.525Z,100175.47
2023-04-25T15:17:02.110Z,100171.41
2023-04-25T15:19:29.212Z,100175.00
2023-04-25T15:21:56.391Z,100174.94
2023-04-25T15:24:23.091Z,100172.88
2023-04-25T15:26:49.722Z,100179.22
2023-04-25T15:29:16.421Z,100172.25
2023-04-25T15:31:43.055Z,100177.25
2023-04-25T15:34:09.628Z,100172.94
2023-04-25T15:36:36.116Z,100174.03
2023-04-25T15:39:02.709Z,100174.13
2023-04-25T15:41:29.926Z,100177.88
2023-04-25T15:43:56.642Z,100184.19
2023-04-25T15:46:23.867Z,100182.91
2023-04-25T15:48:50.411Z,100181.78
2023-04-25T15:51:17.372Z,100189.91
2023-04-25T15:53:43.920Z,100193.97
2023-04-25T15:56:11.075Z,100197.56
2023-04-25T15:58:37.968Z,100199.19
2023-04-25T16:01:04.992Z,100198.75
2023-04-25T16:03:35.593Z,100194.16
2023-04-25T16:06:03.174Z,100199.34
2023-04-25T16:08:34.389Z,100205.09
2023-04-25T16:11:02.950Z,100201.44
2023-04-25T16:13:29.971Z,100207.31
2023-04-25T16:15:56.818Z,100203.41
2023-04-25T16:18:26.594Z,100203.84
2023-04-25T16:20:53.476Z,100202.81
2023-04-25T16:23:20.222Z,100206.16
2023-04-25T16:25:47.018Z,100204.66
2023-04-25T16:28:13.462Z,100194.22
2023-04-25T16:30:40.015Z,100201.69
2023-04-25T16:33:06.552Z,100195.88
2023-04-25T16:35:33.156Z,100207.22
2023-04-25T16:37:59.869Z,100202.19
2023-04-25T16:40:27.121Z,100216.84
2023-04-25T16:42:53.680Z,100216.44
2023-04-25T16:45:21.240Z,100223.63
2023-04-25T16:47:47.763Z,100212.75
2023-04-25T16:50:15.201Z,100216.34
2023-04-25T16:52:43.076Z,100223.47
2023-04-25T16:55:10.947Z,100218.91
2023-04-25T16:57:37.576Z,100216.28
2023-04-25T17:00:06.242Z,100217.13
2023-04-25T17:02:33.040Z,100220.34
2023-04-25T17:04:59.649Z,100214.47
2023-04-25T17:07:26.613Z,100222.94
2023-04-25T17:09:53.387Z,100219.41
2023-04-25T17:12:20.062Z,100220.16
2023-04-25T17:14:46.904Z,100223.72
2023-04-25T17:17:13.396Z,100237.91
2023-04-25T17:19:40.178Z,100232.53
2023-04-25T17:22:07.015Z,100228.22
2023-04-25T17:24:33.552Z,100234.56
2023-04-25T17:27:01.668Z,100243.63
2023-04-25T17:29:28.268Z,100241.81
2023-04-25T17:31:56.957Z,100237.88
2023-04-25T17:34:23.437Z,100254.41
2023-04-25T17:36:50.271Z,100258.53
2023-04-25T17:39:17.644Z,100252.75
2023-04-25T17:41:44.727Z,100262.78
2023-04-25T17:44:11.423Z,100256.16
2023-04-25T17:46:37.921Z,100261.13
2023-04-25T17:49:04.619Z,100259.91
2023-04-25T17:51:31.625Z,100266.06
2023-04-25T17:53:58.366Z,100264.94
2023-04-25T17:56:26.993Z,100264.59
2023-04-25T17:58:56.535Z,100269.31
2023-04-25T18:01:23.193Z,100274.00
2023-04-25T18:03:55.155Z,100287.47
2023-04-25T18:06:21.990Z,100284.31
2023-04-25T18:08:49.574Z,100282.56
2023-04-25T18:11:16.569Z,100288.63
2023-04-25T18:13:43.048Z,100293.91
2023-04-25T18:16:09.882Z,100308.13
2023-04-25T18:18:36.781Z,100303.88
2023-04-25T18:21:04.048Z,100310.00
2023-04-25T18:23:33.684Z,100305.47
2023-04-25T18:26:00.117Z,100307.41
2023-04-25T18:28:26.698Z,100311.50
2023-04-25T18:30:54.243Z,100315.84
2023-04-25T18:33:22.488Z,100312.41
2023-04-25T18:35:58.748Z,100329.97
2023-04-25T18:41:00.094Z,100337.59
2023-04-25T18:43:33.778Z,100333.16
2023-04-25T18:46:00.513Z,100333.88
2023-04-25T18:48:27.567Z,100347.09
2023-04-25T18:50:54.285Z,100342.91
2023-04-25T18:53:20.732Z,100348.38
2023-04-25T18:55:47.307Z,100347.47
2023-04-25T18:58:13.771Z,100346.75
2023-04-25T19:00:40.255Z,100349.41
2023-04-25T19:03:07.612Z,100352.97
2023-04-25T19:05:34.170Z,100350.66
2023-04-25T19:08:00.820Z,100357.84
2023-04-25T19:10:28.703Z,100359.94
2023-04-25T19:12:55.608Z,100360.72
2023-04-25T19:15:22.647Z,100365.13
2023-04-25T19:17:49.296Z,100359.94
2023-04-25T19:20:16.346Z,100355.56
2023-04-25T19:22:43.207Z,100365.03
2023-04-25T19:25:11.404Z,100362.59
2023-04-25T19:27:38.697Z,100369.78
2023-04-25T19:30:08.744Z,100377.84
2023-04-25T19:32:36.066Z,100373.53
2023-04-25T19:35:07.102Z,100384.28
2023-04-25T19:37:34.464Z,100383.47
2023-04-25T19:40:01.123Z,100387.03
2023-04-25T19:42:27.573Z,100392.94
2023-04-25T19:44:54.117Z,100393.00
2023-04-25T19:47:20.635Z,100389.72
2023-04-25T19:49:47.381Z,100395.69
2023-04-25T19:52:14.951Z,100395.81
2023-04-25T19:54:45.435Z,100400.13
2023-04-25T19:57:12.192Z,100401.09
2023-04-25T19:59:39.737Z,100409.75
2023-04-25T20:02:09.085Z,100410.72
2023-04-25T20:04:35.831Z,100411.75
2023-04-25T20:07:02.462Z,100409.91
2023-04-25T20:09:28.924Z,100412.66
2023-04-25T20:11:55.539Z,100404.19
2023-04-25T20:14:22.162Z,100402.53
2023-04-25T20:16:48.660Z,100400.69
2023-04-25T20:19:15.654Z,100410.28
2023-04-25T20:21:42.175Z,100415.44
2023-04-25T20:24:08.685Z,100412.19
2023-04-25T20:26:35.581Z,100412.19
2023-04-25T20:29:02.190Z,100418.16
2023-04-25T20:31:29.745Z,100413.06
2023-04-25T20:33:56.262Z,100410.63
2023-04-25T20:36:22.807Z,100417.47
2023-04-25T20:38:49.537Z,100416.47
2023-04-25T20:41:16.290Z,100418.56
2023-04-25T20:43:42.991Z,100415.88
2023-04-25T20:46:10.303Z,100422.81
2023-04-25T20:48:36.989Z,100412.59
2023-04-25T20:51:03.988Z,100420.47
2023-04-25T20:53:30.686Z,100421.44
2023-04-25T20:55:57.378Z,100421.28
2023-04-25T20:58:23.982Z,100431.47
2023-04-25T21:00:51.264Z,100430.91
2023-04-25T21:03:18.088Z,100426.25
2023-04-25T21:05:44.734Z,100424.63
2023-04-25T21:08:11.449Z,100431.59
2023-04-25T21:10:38.092Z,100433.75
2023-04-25T21:13:05.053Z,100427.81
2023-04-25T21:15:32.147Z,100429.81
2023-04-25T21:17:58.750Z,100436.38
2023-04-25T21:20:25.627Z,100438.84
2023-04-25T21:22:54.151Z,100439.78
2023-04-25T21:25:25.245Z,100438.94
2023-04-25T21:27:52.989Z,100442.44
2023-04-25T21:30:23.536Z,100445.31
2023-04-25T21:32:51.890Z,100444.19
2023-04-25T21:35:20.166Z,100444.03
2023-04-25T21:37:47.109Z,100444.75
2023-04-25T21:40:14.433Z,100443.72
2023-04-25T21:42:45.710Z,100443.25
2023-04-25T21:45:12.261Z,100445.81
2023-04-25T21:47:39.163Z,100441.47
2023-04-25T21:50:06.219Z,100454.53
2023-04-25T21:52:32.803Z,100446.09
2023-04-25T21:54:59.299Z,100456.75
2023-04-25T21:57:26.400Z,100454.03
2023-04-25T21:59:53.607Z,100461.78
2023-04-25T22:02:20.480Z,100464.50
2023-04-25T22:04:47.716Z,100466.22
2023-04-25T22:07:15.320Z,100478.56
2023-04-25T22:09:53.781Z,100481.44
2023-04-25T22:12:21.407Z,100479.72
2023-04-25T22:14:48.931Z,100482.56
2023-04-25T22:17:15.472Z,100481.75
2023-04-25T22:19:43.315Z,100484.31
2023-04-25T22:22:09.963Z,100490.41
2023-04-25T22:24:37.098Z,100493.22
2023-04-25T22:27:03.879Z,100496.78
2023-04-25T22:29:30.453Z,100498.72
2023-04-25T22:31:57.168Z,100498.78
2023-04-25T22:34:23.727Z,100498.84
2023-04-25T22:36:50.752Z,100499.91
2023-04-25T22:39:19.171Z,100499.00
2023-04-25T22:41:46.433Z,100499.25
2023-04-25T22:44:12.917Z,100506.41
2023-04-25T22:46:39.429Z,100510.66
2023-04-25T22:49:06.087Z,100510.75
2023-04-25T22:51:33.096Z,100515.34
2023-04-25T22:54:00.506Z,100515.19
2023-04-25T22:56:30.350Z,100511.91
2023-04-25T22:58:57.029Z,100518.03
2023-04-25T23:01:24.964Z,100514.53
2023-04-25T23:03:51.681Z,100513.91
2023-04-25T23:06:18.982Z,100523.44
2023-04-25T23:08:45.550Z,100520.16
2023-04-25T23:11:12.494Z,100521.88
2023-04-25T23:13:39.355Z,100517.47
2023-04-25T23:16:10.910Z,100528.94
2023-04-25T23:18:39.273Z,100524.66
2023-04-25T23:21:11.237Z,100519.66
2023-04-25T23:23:38.797Z,100521.44
2023-04-25T23:26:11.687Z,100527.59
2023-04-25T23:28:41.708Z,100526.84
2023-04-25T23:31:10.111Z,100526.25
2023-04-25T23:33:36.950Z,100516.84
2023-04-25T23:36:03.623Z,100533.38
2023-04-25T23:38:30.416Z,100533.72
2023-04-25T23:40:56.916Z,100530.22
2023-04-25T23:43:23.555Z,100536.31
2023-04-25T23:45:50.110Z,100529.38
2023-04-25T23:48:16.734Z,100538.25
2023-04-25T23:50:43.731Z,100537.38
2023-04-25T23:53:10.203Z,100545.91
2023-04-25T23:55:37.077Z,100537.44
2023-04-25T23:58:03.827Z,100537.56
